sensor_id;sensor_type;location;lat;lon;timestamp;P1;durP1;ratioP1;P2;durP2;ratioP2
11827;SDS011;5971;49.646;8.568;2023-06-10T00:01:42;11.25;;;7.68;;
11827;SDS011;5971;49.646;8.568;2023-06-10T00:04:48;8.38;;;6.82;;
11827;SDS011;5971;49.646;8.568;2023-06-10T00:07:49;6.93;;;5.32;;
11827;SDS011;5971;49.646;8.568;2023-06-10T00:10:51;8.80;;;6.75;;
11827;SDS011;5971;49.646;8.568;2023-06-10T00:13:52;6.72;;;5.53;;
11827;SDS011;5971;49.646;8.568;2023-06-10T00:16:53;8.20;;;5.97;;
11827;SDS011;5971;49.646;8.568;2023-06-10T00:19:56;8.65;;;5.72;;
11827;SDS011;5971;49.646;8.568;2023-06-10T00:22:58;7.45;;;5.95;;
11827;SDS011;5971;49.646;8.568;2023-06-10T00:26:02;8.20;;;5.25;;
11827;SDS011;5971;49.646;8.568;2023-06-10T00:29:04;7.35;;;5.55;;
11827;SDS011;5971;49.646;8.568;2023-06-10T00:32:05;8.32;;;6.18;;
11827;SDS011;5971;49.646;8.568;2023-06-10T00:35:07;8.05;;;6.28;;
11827;SDS011;5971;49.646;8.568;2023-06-10T00:38:09;8.95;;;6.32;;
11827;SDS011;5971;49.646;8.568;2023-06-10T00:41:10;7.90;;;6.30;;
11827;SDS011;5971;49.646;8.568;2023-06-10T00:44:12;9.52;;;6.65;;
11827;SDS011;5971;49.646;8.568;2023-06-10T00:47:13;7.43;;;5.05;;
11827;SDS011;5971;49.646;8.568;2023-06-10T00:50:15;7.60;;;6.53;;
11827;SDS011;5971;49.646;8.568;2023-06-10T00:53:16;7.50;;;6.57;;
11827;SDS011;5971;49.646;8.568;2023-06-10T00:56:18;7.55;;;6.22;;
11827;SDS011;5971;49.646;8.568;2023-06-10T00:59:20;8.70;;;6.88;;
11827;SDS011;5971;49.646;8.568;2023-06-10T01:02:21;6.78;;;6.03;;
11827;SDS011;5971;49.646;8.568;2023-06-10T01:05:23;7.93;;;5.95;;
11827;SDS011;5971;49.646;8.568;2023-06-10T01:11:28;8.25;;;6.82;;
11827;SDS011;5971;49.646;8.568;2023-06-10T01:17:32;8.20;;;5.70;;
11827;SDS011;5971;49.646;8.568;2023-06-10T01:20:34;6.75;;;5.65;;
11827;SDS011;5971;49.646;8.568;2023-06-10T01:23:38;7.25;;;5.72;;
11827;SDS011;5971;49.646;8.568;2023-06-10T01:26:39;9.45;;;6.72;;
11827;SDS011;5971;49.646;8.568;2023-06-10T01:29:45;7.90;;;5.68;;
11827;SDS011;5971;49.646;8.568;2023-06-10T01:32:48;9.07;;;6.72;;
11827;SDS011;5971;49.646;8.568;2023-06-10T01:35:51;7.78;;;6.38;;
11827;SDS011;5971;49.646;8.568;2023-06-10T01:38:53;8.02;;;6.68;;
11827;SDS011;5971;49.646;8.568;2023-06-10T01:41:54;7.82;;;5.90;;
11827;SDS011;5971;49.646;8.568;2023-06-10T01:44:56;7.18;;;5.20;;
11827;SDS011;5971;49.646;8.568;2023-06-10T01:47:58;7.68;;;6.20;;
11827;SDS011;5971;49.646;8.568;2023-06-10T01:50:59;7.30;;;5.50;;
11827;SDS011;5971;49.646;8.568;2023-06-10T01:54:02;10.43;;;6.40;;
11827;SDS011;5971;49.646;8.568;2023-06-10T01:57:03;8.30;;;6.45;;
11827;SDS011;5971;49.646;8.568;2023-06-10T02:00:07;7.82;;;5.80;;
11827;SDS011;5971;49.646;8.568;2023-06-10T02:03:09;7.95;;;6.47;;
11827;SDS011;5971;49.646;8.568;2023-06-10T02:06:10;8.88;;;7.15;;
11827;SDS011;5971;49.646;8.568;2023-06-10T02:09:12;8.50;;;6.40;;
11827;SDS011;5971;49.646;8.568;2023-06-10T02:12:13;10.18;;;7.13;;
11827;SDS011;5971;49.646;8.568;2023-06-10T02:15:18;8.48;;;6.75;;
11827;SDS011;5971;49.646;8.568;2023-06-10T02:18:19;8.98;;;7.10;;
11827;SDS011;5971;49.646;8.568;2023-06-10T02:21:21;8.80;;;7.90;;
11827;SDS011;5971;49.646;8.568;2023-06-10T02:24:23;9.45;;;7.60;;
11827;SDS011;5971;49.646;8.568;2023-06-10T02:27:24;8.85;;;6.90;;
11827;SDS011;5971;49.646;8.568;2023-06-10T02:30:26;9.30;;;7.18;;
11827;SDS011;5971;49.646;8.568;2023-06-10T02:33:27;8.93;;;6.32;;
11827;SDS011;5971;49.646;8.568;2023-06-10T02:36:29;9.32;;;7.70;;
11827;SDS011;5971;49.646;8.568;2023-06-10T02:39:30;10.23;;;7.78;;
11827;SDS011;5971;49.646;8.568;2023-06-10T02:42:31;9.68;;;7.55;;
11827;SDS011;5971;49.646;8.568;2023-06-10T02:45:33;11.25;;;7.97;;
11827;SDS011;5971;49.646;8.568;2023-06-10T02:48:40;11.20;;;7.53;;
11827;SDS011;5971;49.646;8.568;2023-06-10T02:51:41;10.20;;;8.45;;
11827;SDS011;5971;49.646;8.568;2023-06-10T02:54:43;12.93;;;8.23;;
11827;SDS011;5971;49.646;8.568;2023-06-10T02:57:44;10.15;;;7.68;;
11827;SDS011;5971;49.646;8.568;2023-06-10T03:00:45;10.52;;;8.18;;
11827;SDS011;5971;49.646;8.568;2023-06-10T03:03:47;11.88;;;8.38;;
11827;SDS011;5971;49.646;8.568;2023-06-10T03:06:48;11.10;;;7.07;;
11827;SDS011;5971;49.646;8.568;2023-06-10T03:09:50;12.15;;;8.75;;
11827;SDS011;5971;49.646;8.568;2023-06-10T03:12:51;10.80;;;7.63;;
11827;SDS011;5971;49.646;8.568;2023-06-10T03:15:52;13.10;;;8.82;;
11827;SDS011;5971;49.646;8.568;2023-06-10T03:18:54;11.93;;;9.07;;
11827;SDS011;5971;49.646;8.568;2023-06-10T03:22:14;11.20;;;8.93;;
11827;SDS011;5971;49.646;8.568;2023-06-10T03:25:16;10.68;;;7.63;;
11827;SDS011;5971;49.646;8.568;2023-06-10T03:28:18;10.40;;;8.38;;
11827;SDS011;5971;49.646;8.568;2023-06-10T03:31:19;12.65;;;9.60;;
11827;SDS011;5971;49.646;8.568;2023-06-10T03:34:21;12.15;;;8.43;;
11827;SDS011;5971;49.646;8.568;2023-06-10T03:37:22;12.48;;;8.98;;
11827;SDS011;5971;49.646;8.568;2023-06-10T03:40:24;10.00;;;8.60;;
11827;SDS011;5971;49.646;8.568;2023-06-10T03:43:25;13.43;;;7.43;;
11827;SDS011;5971;49.646;8.568;2023-06-10T03:46:27;11.88;;;9.02;;
11827;SDS011;5971;49.646;8.568;2023-06-10T03:49:28;10.75;;;7.43;;
11827;SDS011;5971;49.646;8.568;2023-06-10T03:52:30;11.90;;;8.45;;
11827;SDS011;5971;49.646;8.568;2023-06-10T03:55:32;11.65;;;9.05;;
11827;SDS011;5971;49.646;8.568;2023-06-10T03:58:33;12.80;;;9.82;;
11827;SDS011;5971;49.646;8.568;2023-06-10T04:01:34;13.00;;;9.75;;
11827;SDS011;5971;49.646;8.568;2023-06-10T04:04:38;13.32;;;9.68;;
11827;SDS011;5971;49.646;8.568;2023-06-10T04:07:40;10.82;;;7.90;;
11827;SDS011;5971;49.646;8.568;2023-06-10T04:10:45;11.32;;;8.20;;
11827;SDS011;5971;49.646;8.568;2023-06-10T04:13:46;11.50;;;9.40;;
11827;SDS011;5971;49.646;8.568;2023-06-10T04:16:47;13.55;;;8.10;;
11827;SDS011;5971;49.646;8.568;2023-06-10T04:19:49;13.32;;;10.07;;
11827;SDS011;5971;49.646;8.568;2023-06-10T04:22:51;12.85;;;9.85;;
11827;SDS011;5971;49.646;8.568;2023-06-10T04:25:52;10.02;;;7.75;;
11827;SDS011;5971;49.646;8.568;2023-06-10T04:28:54;11.73;;;8.93;;
11827;SDS011;5971;49.646;8.568;2023-06-10T04:31:55;13.23;;;10.10;;
11827;SDS011;5971;49.646;8.568;2023-06-10T04:34:57;10.68;;;7.80;;
11827;SDS011;5971;49.646;8.568;2023-06-10T04:37:59;12.05;;;9.95;;
11827;SDS011;5971;49.646;8.568;2023-06-10T04:41:00;11.85;;;9.75;;
11827;SDS011;5971;49.646;8.568;2023-06-10T04:44:02;12.57;;;8.95;;
11827;SDS011;5971;49.646;8.568;2023-06-10T04:47:03;12.63;;;10.10;;
11827;SDS011;5971;49.646;8.568;2023-06-10T04:50:05;12.02;;;8.30;;
11827;SDS011;5971;49.646;8.568;2023-06-10T04:53:06;11.80;;;9.70;;
11827;SDS011;5971;49.646;8.568;2023-06-10T04:56:08;10.60;;;7.55;;
11827;SDS011;5971;49.646;8.568;2023-06-10T04:59:10;11.82;;;8.75;;
11827;SDS011;5971;49.646;8.568;2023-06-10T05:02:11;12.43;;;9.70;;
11827;SDS011;5971;49.646;8.568;2023-06-10T05:05:13;11.15;;;8.80;;
11827;SDS011;5971;49.646;8.568;2023-06-10T05:08:14;11.30;;;9.02;;
11827;SDS011;5971;49.646;8.568;2023-06-10T05:11:15;12.85;;;8.75;;
11827;SDS011;5971;49.646;8.568;2023-06-10T05:14:17;11.77;;;9.32;;
11827;SDS011;5971;49.646;8.568;2023-06-10T05:17:20;12.93;;;10.45;;
11827;SDS011;5971;49.646;8.568;2023-06-10T05:20:21;12.30;;;9.40;;
11827;SDS011;5971;49.646;8.568;2023-06-10T05:23:23;12.60;;;9.20;;
11827;SDS011;5971;49.646;8.568;2023-06-10T05:26:24;12.80;;;8.98;;
11827;SDS011;5971;49.646;8.568;2023-06-10T05:29:26;11.73;;;9.15;;
11827;SDS011;5971;49.646;8.568;2023-06-10T05:32:27;11.40;;;8.48;;
11827;SDS011;5971;49.646;8.568;2023-06-10T05:35:29;12.73;;;9.25;;
11827;SDS011;5971;49.646;8.568;2023-06-10T05:38:30;11.18;;;8.52;;
11827;SDS011;5971;49.646;8.568;2023-06-10T05:41:31;13.02;;;7.95;;
11827;SDS011;5971;49.646;8.568;2023-06-10T05:44:33;11.20;;;8.40;;
11827;SDS011;5971;49.646;8.568;2023-06-10T05:47:34;11.52;;;8.80;;
11827;SDS011;5971;49.646;8.568;2023-06-10T05:50:36;10.27;;;8.50;;
11827;SDS011;5971;49.646;8.568;2023-06-10T05:53:39;12.23;;;8.80;;
11827;SDS011;5971;49.646;8.568;2023-06-10T05:56:41;10.25;;;8.63;;
11827;SDS011;5971;49.646;8.568;2023-06-10T05:59:42;9.90;;;8.73;;
11827;SDS011;5971;49.646;8.568;2023-06-10T06:02:43;10.20;;;8.30;;
11827;SDS011;5971;49.646;8.568;2023-06-10T06:05:45;10.98;;;8.13;;
11827;SDS011;5971;49.646;8.568;2023-06-10T06:08:47;11.63;;;8.43;;
11827;SDS011;5971;49.646;8.568;2023-06-10T06:11:48;9.73;;;8.07;;
11827;SDS011;5971;49.646;8.568;2023-06-10T06:14:49;11.07;;;8.63;;
11827;SDS011;5971;49.646;8.568;2023-06-10T06:17:51;10.55;;;6.75;;
11827;SDS011;5971;49.646;8.568;2023-06-10T06:20:57;11.10;;;7.00;;
11827;SDS011;5971;49.646;8.568;2023-06-10T06:23:58;9.57;;;6.63;;
11827;SDS011;5971;49.646;8.568;2023-06-10T06:27:00;10.13;;;6.80;;
11827;SDS011;5971;49.646;8.568;2023-06-10T06:30:01;10.25;;;6.78;;
11827;SDS011;5971;49.646;8.568;2023-06-10T06:33:03;13.77;;;7.38;;
11827;SDS011;5971;49.646;8.568;2023-06-10T06:36:05;9.70;;;6.90;;
11827;SDS011;5971;49.646;8.568;2023-06-10T06:39:06;8.05;;;6.72;;
11827;SDS011;5971;49.646;8.568;2023-06-10T06:42:07;8.35;;;6.80;;
11827;SDS011;5971;49.646;8.568;2023-06-10T06:45:09;8.57;;;6.60;;
11827;SDS011;5971;49.646;8.568;2023-06-10T06:48:11;8.30;;;5.93;;
11827;SDS011;5971;49.646;8.568;2023-06-10T06:51:13;8.43;;;6.70;;
11827;SDS011;5971;49.646;8.568;2023-06-10T06:54:14;8.23;;;6.93;;
11827;SDS011;5971;49.646;8.568;2023-06-10T06:57:15;8.88;;;6.60;;
11827;SDS011;5971;49.646;8.568;2023-06-10T07:00:17;7.65;;;6.30;;
11827;SDS011;5971;49.646;8.568;2023-06-10T07:03:18;7.93;;;6.25;;
11827;SDS011;5971;49.646;8.568;2023-06-10T07:06:20;6.43;;;5.68;;
11827;SDS011;5971;49.646;8.568;2023-06-10T07:09:21;6.93;;;6.10;;
11827;SDS011;5971;49.646;8.568;2023-06-10T07:12:22;8.43;;;6.60;;
11827;SDS011;5971;49.646;8.568;2023-06-10T07:15:25;7.90;;;6.05;;
11827;SDS011;5971;49.646;8.568;2023-06-10T07:18:26;7.00;;;6.28;;
11827;SDS011;5971;49.646;8.568;2023-06-10T07:21:29;7.43;;;5.90;;
11827;SDS011;5971;49.646;8.568;2023-06-10T07:27:32;9.00;;;5.57;;
11827;SDS011;5971;49.646;8.568;2023-06-10T07:30:33;8.00;;;5.88;;
11827;SDS011;5971;49.646;8.568;2023-06-10T07:33:35;7.85;;;5.43;;
11827;SDS011;5971;49.646;8.568;2023-06-10T07:36:38;7.25;;;5.95;;
11827;SDS011;5971;49.646;8.568;2023-06-10T07:39:39;8.05;;;5.82;;
11827;SDS011;5971;49.646;8.568;2023-06-10T07:42:40;6.28;;;5.15;;
11827;SDS011;5971;49.646;8.568;2023-06-10T07:45:43;7.55;;;5.97;;
11827;SDS011;5971;49.646;8.568;2023-06-10T07:48:45;6.60;;;5.47;;
11827;SDS011;5971;49.646;8.568;2023-06-10T07:51:46;6.68;;;5.57;;
11827;SDS011;5971;49.646;8.568;2023-06-10T07:54:47;10.90;;;5.55;;
11827;SDS011;5971;49.646;8.568;2023-06-10T07:57:48;6.93;;;5.60;;
11827;SDS011;5971;49.646;8.568;2023-06-10T08:00:50;6.65;;;5.30;;
11827;SDS011;5971;49.646;8.568;2023-06-10T08:03:51;6.85;;;5.55;;
11827;SDS011;5971;49.646;8.568;2023-06-10T08:06:53;6.43;;;5.22;;
11827;SDS011;5971;49.646;8.568;2023-06-10T08:09:54;5.65;;;4.82;;
11827;SDS011;5971;49.646;8.568;2023-06-10T08:12:55;6.93;;;5.45;;
11827;SDS011;5971;49.646;8.568;2023-06-10T08:15:57;5.95;;;5.30;;
11827;SDS011;5971;49.646;8.568;2023-06-10T08:18:58;7.63;;;5.57;;
11827;SDS011;5971;49.646;8.568;2023-06-10T08:21:59;6.60;;;5.30;;
11827;SDS011;5971;49.646;8.568;2023-06-10T08:25:01;6.47;;;5.72;;
11827;SDS011;5971;49.646;8.568;2023-06-10T08:28:02;6.85;;;5.30;;
11827;SDS011;5971;49.646;8.568;2023-06-10T08:31:03;6.80;;;5.28;;
11827;SDS011;5971;49.646;8.568;2023-06-10T08:34:05;6.85;;;5.95;;
11827;SDS011;5971;49.646;8.568;2023-06-10T08:37:06;8.05;;;5.80;;
11827;SDS011;5971;49.646;8.568;2023-06-10T08:40:08;6.90;;;5.70;;
11827;SDS011;5971;49.646;8.568;2023-06-10T08:43:32;6.80;;;6.05;;
11827;SDS011;5971;49.646;8.568;2023-06-10T08:46:31;7.13;;;6.03;;
11827;SDS011;5971;49.646;8.568;2023-06-10T08:49:33;7.38;;;6.20;;
11827;SDS011;5971;49.646;8.568;2023-06-10T08:52:35;6.68;;;5.40;;
11827;SDS011;5971;49.646;8.568;2023-06-10T08:55:38;7.50;;;5.10;;
11827;SDS011;5971;49.646;8.568;2023-06-10T08:58:40;6.47;;;5.35;;
11827;SDS011;5971;49.646;8.568;2023-06-10T09:01:43;7.20;;;5.50;;
11827;SDS011;5971;49.646;8.568;2023-06-10T09:04:46;5.80;;;4.85;;
11827;SDS011;5971;49.646;8.568;2023-06-10T09:07:47;6.30;;;5.45;;
11827;SDS011;5971;49.646;8.568;2023-06-10T09:10:49;9.35;;;4.90;;
11827;SDS011;5971;49.646;8.568;2023-06-10T09:13:50;5.47;;;4.88;;
11827;SDS011;5971;49.646;8.568;2023-06-10T09:16:52;6.28;;;5.18;;
11827;SDS011;5971;49.646;8.568;2023-06-10T09:19:59;6.05;;;5.40;;
11827;SDS011;5971;49.646;8.568;2023-06-10T09:26:02;4.93;;;4.38;;
11827;SDS011;5971;49.646;8.568;2023-06-10T09:29:05;5.53;;;4.93;;
11827;SDS011;5971;49.646;8.568;2023-06-10T09:32:07;5.93;;;4.70;;
11827;SDS011;5971;49.646;8.568;2023-06-10T09:35:10;5.85;;;4.75;;
11827;SDS011;5971;49.646;8.568;2023-06-10T09:38:13;6.43;;;5.20;;
11827;SDS011;5971;49.646;8.568;2023-06-10T09:41:15;5.60;;;5.10;;
11827;SDS011;5971;49.646;8.568;2023-06-10T09:44:17;5.80;;;4.72;;
11827;SDS011;5971;49.646;8.568;2023-06-10T09:47:20;7.13;;;5.63;;
11827;SDS011;5971;49.646;8.568;2023-06-10T09:50:21;7.40;;;5.03;;
11827;SDS011;5971;49.646;8.568;2023-06-10T09:53:23;6.93;;;6.25;;
11827;SDS011;5971;49.646;8.568;2023-06-10T09:56:36;5.97;;;5.15;;
11827;SDS011;5971;49.646;8.568;2023-06-10T09:59:38;6.28;;;4.95;;
11827;SDS011;5971;49.646;8.568;2023-06-10T10:02:49;5.75;;;4.85;;
11827;SDS011;5971;49.646;8.568;2023-06-10T10:05:57;5.45;;;4.95;;
11827;SDS011;5971;49.646;8.568;2023-06-10T10:08:58;4.93;;;4.13;;
11827;SDS011;5971;49.646;8.568;2023-06-10T10:12:00;5.55;;;3.75;;
11827;SDS011;5971;49.646;8.568;2023-06-10T10:15:03;4.80;;;4.30;;
11827;SDS011;5971;49.646;8.568;2023-06-10T10:18:09;4.80;;;3.78;;
11827;SDS011;5971;49.646;8.568;2023-06-10T10:21:13;4.95;;;3.55;;
11827;SDS011;5971;49.646;8.568;2023-06-10T10:24:16;5.72;;;3.95;;
11827;SDS011;5971;49.646;8.568;2023-06-10T10:27:31;4.93;;;4.13;;
11827;SDS011;5971;49.646;8.568;2023-06-10T10:30:36;4.90;;;4.38;;
11827;SDS011;5971;49.646;8.568;2023-06-10T10:36:46;4.35;;;3.95;;
11827;SDS011;5971;49.646;8.568;2023-06-10T10:39:49;4.30;;;3.65;;
11827;SDS011;5971;49.646;8.568;2023-06-10T10:42:51;7.97;;;3.45;;
11827;SDS011;5971;49.646;8.568;2023-06-10T10:45:59;4.30;;;3.60;;
11827;SDS011;5971;49.646;8.568;2023-06-10T10:49:01;4.55;;;3.70;;
11827;SDS011;5971;49.646;8.568;2023-06-10T10:52:02;4.65;;;3.97;;
11827;SDS011;5971;49.646;8.568;2023-06-10T10:55:07;5.78;;;4.00;;
11827;SDS011;5971;49.646;8.568;2023-06-10T10:58:13;4.20;;;3.70;;
11827;SDS011;5971;49.646;8.568;2023-06-10T11:01:17;5.13;;;4.00;;
11827;SDS011;5971;49.646;8.568;2023-06-10T11:04:18;4.43;;;4.03;;
11827;SDS011;5971;49.646;8.568;2023-06-10T11:07:20;4.50;;;3.63;;
11827;SDS011;5971;49.646;8.568;2023-06-10T11:10:32;4.53;;;4.13;;
11827;SDS011;5971;49.646;8.568;2023-06-10T11:13:34;4.32;;;3.80;;
11827;SDS011;5971;49.646;8.568;2023-06-10T11:16:40;4.22;;;3.83;;
11827;SDS011;5971;49.646;8.568;2023-06-10T11:19:43;5.28;;;4.30;;
11827;SDS011;5971;49.646;8.568;2023-06-10T11:23:00;4.88;;;3.60;;
11827;SDS011;5971;49.646;8.568;2023-06-10T11:29:14;3.47;;;3.13;;
11827;SDS011;5971;49.646;8.568;2023-06-10T11:32:17;4.43;;;3.55;;
11827;SDS011;5971;49.646;8.568;2023-06-10T11:35:19;4.40;;;3.63;;
11827;SDS011;5971;49.646;8.568;2023-06-10T11:38:21;3.92;;;3.50;;
11827;SDS011;5971;49.646;8.568;2023-06-10T11:41:23;5.75;;;3.90;;
11827;SDS011;5971;49.646;8.568;2023-06-10T11:44:25;4.20;;;3.53;;
11827;SDS011;5971;49.646;8.568;2023-06-10T11:47:28;5.07;;;3.53;;
11827;SDS011;5971;49.646;8.568;2023-06-10T11:50:33;3.72;;;3.20;;
11827;SDS011;5971;49.646;8.568;2023-06-10T11:53:34;3.90;;;3.22;;
11827;SDS011;5971;49.646;8.568;2023-06-10T11:56:36;5.25;;;3.83;;
11827;SDS011;5971;49.646;8.568;2023-06-10T11:59:37;4.38;;;3.88;;
11827;SDS011;5971;49.646;8.568;2023-06-10T12:02:39;4.63;;;3.65;;
11827;SDS011;5971;49.646;8.568;2023-06-10T12:09:28;3.63;;;3.13;;
11827;SDS011;5971;49.646;8.568;2023-06-10T12:12:29;3.67;;;3.10;;
11827;SDS011;5971;49.646;8.568;2023-06-10T12:15:31;4.13;;;3.53;;
11827;SDS011;5971;49.646;8.568;2023-06-10T12:18:33;4.53;;;3.10;;
11827;SDS011;5971;49.646;8.568;2023-06-10T12:21:36;3.83;;;3.00;;
11827;SDS011;5971;49.646;8.568;2023-06-10T12:24:44;3.80;;;3.13;;
11827;SDS011;5971;49.646;8.568;2023-06-10T12:27:52;3.75;;;2.92;;
11827;SDS011;5971;49.646;8.568;2023-06-10T12:31:06;4.18;;;3.42;;
11827;SDS011;5971;49.646;8.568;2023-06-10T12:34:09;3.92;;;3.53;;
11827;SDS011;5971;49.646;8.568;2023-06-10T12:37:10;3.65;;;3.10;;
11827;SDS011;5971;49.646;8.568;2023-06-10T12:40:14;4.63;;;3.10;;
11827;SDS011;5971;49.646;8.568;2023-06-10T12:43:22;4.78;;;3.63;;
11827;SDS011;5971;49.646;8.568;2023-06-10T12:46:24;4.10;;;3.33;;
11827;SDS011;5971;49.646;8.568;2023-06-10T12:49:25;4.10;;;3.47;;
11827;SDS011;5971;49.646;8.568;2023-06-10T12:52:27;3.70;;;3.28;;
11827;SDS011;5971;49.646;8.568;2023-06-10T12:55:28;3.42;;;3.13;;
11827;SDS011;5971;49.646;8.568;2023-06-10T12:58:30;4.28;;;3.53;;
11827;SDS011;5971;49.646;8.568;2023-06-10T13:01:31;4.10;;;3.13;;
11827;SDS011;5971;49.646;8.568;2023-06-10T13:04:33;4.10;;;3.47;;
11827;SDS011;5971;49.646;8.568;2023-06-10T13:07:35;3.60;;;3.15;;
11827;SDS011;5971;49.646;8.568;2023-06-10T13:10:36;4.32;;;3.92;;
11827;SDS011;5971;49.646;8.568;2023-06-10T13:13:38;3.40;;;3.08;;
11827;SDS011;5971;49.646;8.568;2023-06-10T13:16:39;3.97;;;3.30;;
11827;SDS011;5971;49.646;8.568;2023-06-10T13:19:40;3.78;;;3.38;;
11827;SDS011;5971;49.646;8.568;2023-06-10T13:22:42;3.65;;;3.10;;
11827;SDS011;5971;49.646;8.568;2023-06-10T13:25:43;3.53;;;3.22;;
11827;SDS011;5971;49.646;8.568;2023-06-10T13:28:45;3.83;;;3.42;;
11827;SDS011;5971;49.646;8.568;2023-06-10T13:31:47;3.70;;;2.92;;
11827;SDS011;5971;49.646;8.568;2023-06-10T13:34:48;4.22;;;3.50;;
11827;SDS011;5971;49.646;8.568;2023-06-10T13:37:54;5.53;;;3.33;;
11827;SDS011;5971;49.646;8.568;2023-06-10T13:40:55;3.45;;;2.90;;
11827;SDS011;5971;49.646;8.568;2023-06-10T13:43:57;3.67;;;3.28;;
11827;SDS011;5971;49.646;8.568;2023-06-10T13:46:58;4.30;;;3.00;;
11827;SDS011;5971;49.646;8.568;2023-06-10T13:49:59;3.60;;;3.20;;
11827;SDS011;5971;49.646;8.568;2023-06-10T13:53:01;3.67;;;3.22;;
11827;SDS011;5971;49.646;8.568;2023-06-10T13:56:05;3.72;;;3.22;;
11827;SDS011;5971;49.646;8.568;2023-06-10T13:59:06;3.53;;;2.92;;
11827;SDS011;5971;49.646;8.568;2023-06-10T14:02:07;4.20;;;3.45;;
11827;SDS011;5971;49.646;8.568;2023-06-10T14:05:12;4.22;;;3.40;;
11827;SDS011;5971;49.646;8.568;2023-06-10T14:08:14;3.78;;;3.22;;
11827;SDS011;5971;49.646;8.568;2023-06-10T14:11:15;5.03;;;3.40;;
11827;SDS011;5971;49.646;8.568;2023-06-10T14:14:17;5.85;;;3.45;;
11827;SDS011;5971;49.646;8.568;2023-06-10T14:17:18;3.90;;;3.50;;
11827;SDS011;5971;49.646;8.568;2023-06-10T14:20:19;4.00;;;3.45;;
11827;SDS011;5971;49.646;8.568;2023-06-10T14:23:21;3.90;;;3.15;;
11827;SDS011;5971;49.646;8.568;2023-06-10T14:26:22;4.13;;;3.33;;
11827;SDS011;5971;49.646;8.568;2023-06-10T14:29:23;3.90;;;3.22;;
11827;SDS011;5971;49.646;8.568;2023-06-10T14:32:25;4.32;;;3.22;;
11827;SDS011;5971;49.646;8.568;2023-06-10T14:35:26;4.07;;;3.67;;
11827;SDS011;5971;49.646;8.568;2023-06-10T14:38:28;4.47;;;3.47;;
11827;SDS011;5971;49.646;8.568;2023-06-10T14:41:29;4.00;;;3.60;;
11827;SDS011;5971;49.646;8.568;2023-06-10T14:44:30;4.40;;;4.00;;
11827;SDS011;5971;49.646;8.568;2023-06-10T14:47:32;4.53;;;3.53;;
11827;SDS011;5971;49.646;8.568;2023-06-10T14:50:37;3.95;;;3.28;;
11827;SDS011;5971;49.646;8.568;2023-06-10T14:53:38;4.35;;;3.05;;
11827;SDS011;5971;49.646;8.568;2023-06-10T14:56:40;4.55;;;3.72;;
11827;SDS011;5971;49.646;8.568;2023-06-10T14:59:41;5.05;;;4.18;;
11827;SDS011;5971;49.646;8.568;2023-06-10T15:02:42;4.05;;;3.58;;
11827;SDS011;5971;49.646;8.568;2023-06-10T15:05:44;4.72;;;3.78;;
11827;SDS011;5971;49.646;8.568;2023-06-10T15:08:45;5.07;;;3.92;;
11827;SDS011;5971;49.646;8.568;2023-06-10T15:11:49;4.70;;;4.03;;
11827;SDS011;5971;49.646;8.568;2023-06-10T15:14:51;4.03;;;3.63;;
11827;SDS011;5971;49.646;8.568;2023-06-10T15:17:52;4.32;;;3.90;;
11827;SDS011;5971;49.646;8.568;2023-06-10T15:20:54;4.20;;;3.70;;
11827;SDS011;5971;49.646;8.568;2023-06-10T15:23:56;4.43;;;3.65;;
11827;SDS011;5971;49.646;8.568;2023-06-10T15:26:57;4.55;;;3.75;;
11827;SDS011;5971;49.646;8.568;2023-06-10T15:29:58;5.82;;;3.70;;
11827;SDS011;5971;49.646;8.568;2023-06-10T15:33:00;3.95;;;3.53;;
11827;SDS011;5971;49.646;8.568;2023-06-10T15:36:01;4.03;;;3.55;;
11827;SDS011;5971;49.646;8.568;2023-06-10T15:39:03;4.75;;;4.18;;
11827;SDS011;5971;49.646;8.568;2023-06-10T15:42:07;4.90;;;3.90;;
11827;SDS011;5971;49.646;8.568;2023-06-10T15:45:08;4.53;;;3.80;;
11827;SDS011;5971;49.646;8.568;2023-06-10T15:48:10;4.63;;;3.58;;
11827;SDS011;5971;49.646;8.568;2023-06-10T15:51:12;4.00;;;3.58;;
11827;SDS011;5971;49.646;8.568;2023-06-10T15:54:13;4.13;;;3.63;;
11827;SDS011;5971;49.646;8.568;2023-06-10T15:57:14;4.32;;;3.92;;
11827;SDS011;5971;49.646;8.568;2023-06-10T16:00:16;3.97;;;3.45;;
11827;SDS011;5971;49.646;8.568;2023-06-10T16:03:17;5.03;;;3.70;;
11827;SDS011;5971;49.646;8.568;2023-06-10T16:06:19;4.63;;;4.13;;
11827;SDS011;5971;49.646;8.568;2023-06-10T16:09:21;4.70;;;4.05;;
11827;SDS011;5971;49.646;8.568;2023-06-10T16:12:22;6.07;;;3.80;;
11827;SDS011;5971;49.646;8.568;2023-06-10T16:15:24;3.78;;;3.15;;
11827;SDS011;5971;49.646;8.568;2023-06-10T16:18:25;4.82;;;4.10;;
11827;SDS011;5971;49.646;8.568;2023-06-10T16:21:27;17.33;;;15.48;;
11827;SDS011;5971;49.646;8.568;2023-06-10T16:24:28;30.52;;;23.23;;
11827;SDS011;5971;49.646;8.568;2023-06-10T16:27:29;5.30;;;3.72;;
11827;SDS011;5971;49.646;8.568;2023-06-10T16:30:31;5.13;;;3.85;;
11827;SDS011;5971;49.646;8.568;2023-06-10T16:33:33;8.82;;;7.47;;
11827;SDS011;5971;49.646;8.568;2023-06-10T16:36:35;6.60;;;5.25;;
11827;SDS011;5971;49.646;8.568;2023-06-10T16:39:37;4.55;;;3.80;;
11827;SDS011;5971;49.646;8.568;2023-06-10T16:42:38;14.77;;;12.75;;
11827;SDS011;5971;49.646;8.568;2023-06-10T16:45:40;15.25;;;12.52;;
11827;SDS011;5971;49.646;8.568;2023-06-10T16:48:41;14.88;;;11.07;;
11827;SDS011;5971;49.646;8.568;2023-06-10T16:51:45;12.48;;;10.80;;
11827;SDS011;5971;49.646;8.568;2023-06-10T16:54:47;24.75;;;17.98;;
11827;SDS011;5971;49.646;8.568;2023-06-10T16:57:48;18.95;;;14.07;;
11827;SDS011;5971;49.646;8.568;2023-06-10T17:00:49;36.83;;;29.45;;
11827;SDS011;5971;49.646;8.568;2023-06-10T17:03:51;12.40;;;10.70;;
11827;SDS011;5971;49.646;8.568;2023-06-10T17:06:52;11.30;;;9.18;;
11827;SDS011;5971;49.646;8.568;2023-06-10T17:09:54;10.73;;;9.10;;
11827;SDS011;5971;49.646;8.568;2023-06-10T17:12:55;11.88;;;10.57;;
11827;SDS011;5971;49.646;8.568;2023-06-10T17:15:56;10.13;;;8.77;;
11827;SDS011;5971;49.646;8.568;2023-06-10T17:18:58;11.07;;;9.98;;
11827;SDS011;5971;49.646;8.568;2023-06-10T17:21:59;9.80;;;8.75;;
11827;SDS011;5971;49.646;8.568;2023-06-10T17:25:01;15.80;;;12.68;;
11827;SDS011;5971;49.646;8.568;2023-06-10T17:28:02;8.63;;;7.38;;
11827;SDS011;5971;49.646;8.568;2023-06-10T17:31:03;8.90;;;8.00;;
11827;SDS011;5971;49.646;8.568;2023-06-10T17:34:05;6.47;;;5.43;;
11827;SDS011;5971;49.646;8.568;2023-06-10T17:37:06;7.35;;;6.65;;
11827;SDS011;5971;49.646;8.568;2023-06-10T17:40:08;4.43;;;3.50;;
11827;SDS011;5971;49.646;8.568;2023-06-10T17:43:09;4.85;;;3.78;;
11827;SDS011;5971;49.646;8.568;2023-06-10T17:46:10;3.97;;;3.35;;
11827;SDS011;5971;49.646;8.568;2023-06-10T17:49:12;4.45;;;3.72;;
11827;SDS011;5971;49.646;8.568;2023-06-10T17:52:13;5.03;;;3.65;;
11827;SDS011;5971;49.646;8.568;2023-06-10T17:55:15;4.32;;;3.50;;
11827;SDS011;5971;49.646;8.568;2023-06-10T17:58:16;4.57;;;3.72;;
11827;SDS011;5971;49.646;8.568;2023-06-10T18:01:18;5.18;;;3.70;;
11827;SDS011;5971;49.646;8.568;2023-06-10T18:04:19;4.95;;;3.78;;
11827;SDS011;5971;49.646;8.568;2023-06-10T18:07:21;5.00;;;4.20;;
11827;SDS011;5971;49.646;8.568;2023-06-10T18:10:22;4.55;;;3.63;;
11827;SDS011;5971;49.646;8.568;2023-06-10T18:13:23;4.57;;;3.60;;
11827;SDS011;5971;49.646;8.568;2023-06-10T18:16:25;4.38;;;3.72;;
11827;SDS011;5971;49.646;8.568;2023-06-10T18:19:28;4.55;;;3.42;;
11827;SDS011;5971;49.646;8.568;2023-06-10T18:22:29;4.68;;;3.92;;
11827;SDS011;5971;49.646;8.568;2023-06-10T18:25:30;4.68;;;3.88;;
11827;SDS011;5971;49.646;8.568;2023-06-10T18:28:32;5.10;;;4.03;;
11827;SDS011;5971;49.646;8.568;2023-06-10T18:31:33;5.40;;;3.97;;
11827;SDS011;5971;49.646;8.568;2023-06-10T18:34:34;5.53;;;4.28;;
11827;SDS011;5971;49.646;8.568;2023-06-10T18:37:38;6.95;;;4.65;;
11827;SDS011;5971;49.646;8.568;2023-06-10T18:40:40;6.13;;;4.05;;
11827;SDS011;5971;49.646;8.568;2023-06-10T18:43:41;5.78;;;4.35;;
11827;SDS011;5971;49.646;8.568;2023-06-10T18:46:43;5.60;;;3.83;;
11827;SDS011;5971;49.646;8.568;2023-06-10T18:49:44;5.75;;;4.57;;
11827;SDS011;5971;49.646;8.568;2023-06-10T18:52:46;6.28;;;4.70;;